Time;durP1;ratioP1;P1;durP2;ratioP2;P2;SDS_P1;SDS_P2;PMS_P1;PMS_P2;Temp;Humidity;BMP_temperature;BMP_pressure;BME280_temperature;BME280_humidity;BME280_pressure;Samples;Min_cycle;Max_cycle;Signal;HPM_P1;HPM_P2
2022/11/13 00:01:16;;;;;;;18.55;12.07;;;;;;;-0.30;100.00;99861.28;4218401;28;20233;-71
2022/11/13 00:03:17;;;;;;;21.45;11.82;;;;;;;-0.32;100.00;99868.09;4220774;27;20031;-71
2022/11/13 00:05:17;;;;;;;21.88;12.95;;;;;;;-0.41;100.00;99858.88;4220558;28;20151;-71
2022/11/13 00:07:18;;;;;;;21.77;12.45;;;;;;;-0.39;100.00;99857.50;4220737;28;20048;-71
2022/11/13 00:09:18;;;;;;;20.55;12.95;;;;;;;-0.35;100.00;99863.19;4219899;28;20387;-71
2022/11/13 00:11:19;;;;;;;21.95;12.57;;;;;;;-0.32;100.00;99862.66;4212998;28;20043;-71
2022/11/13 00:13:19;;;;;;;21.13;13.38;;;;;;;-0.33;100.00;99861.03;4212876;28;20050;-71
2022/11/13 00:15:19;;;;;;;23.92;13.35;;;;;;;-0.32;100.00;99855.31;4219123;28;20039;-71
2022/11/13 00:17:20;;;;;;;27.63;13.75;;;;;;;-0.35;100.00;99846.88;4220373;28;20044;-71
2022/11/13 00:19:20;;;;;;;22.30;13.32;;;;;;;-0.49;100.00;99843.09;4220511;28;20114;-71
2022/11/13 00:21:23;;;;;;;28.63;15.73;;;;;;;-0.64;100.00;99841.19;4220466;28;20044;-71
2022/11/13 00:23:23;;;;;;;29.95;17.58;;;;;;;-0.76;100.00;99838.69;4219163;28;20570;-71
2022/11/13 00:25:24;;;;;;;28.77;16.73;;;;;;;-0.93;100.00;99832.72;4219766;28;20084;-71
2022/11/13 00:27:24;;;;;;;34.20;15.15;;;;;;;-0.96;100.00;99835.97;4220568;28;20059;-71
2022/11/13 00:29:24;;;;;;;31.00;16.98;;;;;;;-0.94;100.00;99837.31;4219808;28;20040;-71
2022/11/13 00:31:26;;;;;;;30.23;16.27;;;;;;;-0.96;100.00;99825.91;4220206;28;20080;-71
2022/11/13 00:33:26;;;;;;;26.10;14.27;;;;;;;-1.00;100.00;99834.88;4219638;28;20032;-71
2022/11/13 00:35:27;;;;;;;29.48;14.13;;;;;;;-0.98;100.00;99828.09;4219796;28;20039;-71
2022/11/13 00:37:27;;;;;;;24.17;14.13;;;;;;;-0.96;100.00;99822.38;4219904;28;20097;-71
2022/11/13 00:39:27;;;;;;;23.08;14.10;;;;;;;-1.01;100.00;99822.38;4219937;28;20334;-71
2022/11/13 00:41:28;;;;;;;25.33;14.15;;;;;;;-0.98;100.00;99817.22;4217626;28;20063;-71
2022/11/13 00:43:28;;;;;;;21.95;13.40;;;;;;;-0.96;100.00;99812.34;4218537;28;20036;-71
2022/11/13 00:45:28;;;;;;;21.02;13.68;;;;;;;-0.80;100.00;99820.50;4219510;28;20119;-71
2022/11/13 00:47:28;;;;;;;25.60;14.25;;;;;;;-0.76;100.00;99811.53;4219780;28;20384;-71
2022/11/13 00:49:29;;;;;;;25.55;13.90;;;;;;;-0.87;100.00;99808.00;4219916;28;20043;-71
2022/11/13 00:51:29;;;;;;;23.17;13.00;;;;;;;-0.92;100.00;99801.72;4219966;28;20074;-71
2022/11/13 00:53:30;;;;;;;23.55;13.82;;;;;;;-0.90;100.00;99813.16;4219535;28;20554;-71
2022/11/13 00:55:30;;;;;;;25.52;13.95;;;;;;;-0.99;100.00;99803.91;4219001;28;20337;-71
2022/11/13 00:57:30;;;;;;;23.83;13.50;;;;;;;-1.02;100.00;99809.88;4220202;28;20446;-72
2022/11/13 00:59:31;;;;;;;24.00;13.80;;;;;;;-0.89;100.00;99814.78;4219562;28;20366;-71
2022/11/13 01:01:31;;;;;;;22.98;12.75;;;;;;;-0.83;100.00;99815.59;4219222;28;20044;-71
2022/11/13 01:03:31;;;;;;;20.58;12.75;;;;;;;-0.81;100.00;99814.25;4218652;28;20070;-71
2022/11/13 01:05:36;;;;;;;25.55;12.85;;;;;;;-0.78;100.00;99811.00;4220019;28;20364;-71
2022/11/13 01:07:36;;;;;;;22.67;13.57;;;;;;;-0.78;100.00;99807.47;4219903;28;20039;-71
2022/11/13 01:09:37;;;;;;;22.55;13.43;;;;;;;-0.78;100.00;99804.75;4218437;28;20479;-71
2022/11/13 01:11:37;;;;;;;20.98;13.05;;;;;;;-0.83;100.00;99805.53;4217816;28;20387;-71
2022/11/13 01:13:43;;;;;;;26.55;14.15;;;;;;;-0.91;100.00;99796.06;4218612;28;20035;-71
2022/11/13 01:15:44;;;;;;;30.45;15.50;;;;;;;-1.01;100.00;99801.44;4216161;28;20062;-71
2022/11/13 01:17:44;;;;;;;22.23;13.38;;;;;;;-1.09;100.00;99795.72;4219200;28;20456;-71
2022/11/13 01:19:44;;;;;;;19.88;13.00;;;;;;;-1.19;100.00;99793.81;4219078;28;20041;-71
2022/11/13 01:21:46;;;;;;;47.10;16.40;;;;;;;-1.22;100.00;99788.94;4218711;28;20063;-71
2022/11/13 01:23:46;;;;;;;28.65;17.08;;;;;;;-1.26;100.00;99787.81;4219260;28;20217;-71
2022/11/13 01:25:47;;;;;;;30.05;17.85;;;;;;;-1.33;100.00;99788.06;4218484;28;20396;-71
2022/11/13 01:27:47;;;;;;;32.22;16.70;;;;;;;-1.36;100.00;99785.91;4218571;28;20349;-71
2022/11/13 01:29:47;;;;;;;25.48;15.98;;;;;;;-1.44;100.00;99781.00;4219304;28;20043;-71
2022/11/13 01:31:48;;;;;;;33.70;15.65;;;;;;;-1.44;100.00;99776.38;4219027;28;20038;-71
2022/11/13 01:33:48;;;;;;;25.50;15.18;;;;;;;-1.35;100.00;99779.41;4218335;28;20036;-71
2022/11/13 01:35:48;;;;;;;35.72;16.30;;;;;;;-1.33;100.00;99779.13;4219593;28;20126;-71
2022/11/13 01:37:49;;;;;;;27.73;14.90;;;;;;;-1.34;100.00;99775.59;4218534;28;20097;-72
2022/11/13 01:39:50;;;;;;;37.97;17.77;;;;;;;-1.38;100.00;99773.69;4218816;28;20044;-71
2022/11/13 01:41:50;;;;;;;48.00;17.27;;;;;;;-1.43;100.00;99771.78;4219287;28;20082;-72
2022/11/13 01:43:52;;;;;;;31.25;15.55;;;;;;;-1.42;100.00;99771.50;4218121;28;20334;-72
2022/11/13 01:45:58;;;;;;;33.58;18.13;;;;;;;-1.44;100.00;99770.94;4218442;28;20750;-71
2022/11/13 01:47:59;;;;;;;25.50;15.05;;;;;;;-1.52;100.00;99765.22;4218596;28;20185;-71
2022/11/13 01:50:01;;;;;;;25.80;15.45;;;;;;;-1.55;100.00;99761.16;4216867;28;20071;-71
2022/11/13 01:52:09;;;;;;;24.98;16.65;;;;;;;-1.57;100.00;99765.22;4216370;28;21052;-71
2022/11/13 01:54:19;;;;;;;26.00;16.73;;;;;;;-1.64;100.00;99775.53;4218011;28;20699;-71
2022/11/13 01:56:20;;;;;;;29.92;16.63;;;;;;;-1.61;100.00;99772.25;4218609;28;20070;-72
2022/11/13 01:58:20;;;;;;;29.10;16.60;;;;;;;-1.69;100.00;99762.75;4218728;28;20034;-71
2022/11/13 02:00:21;;;;;;;22.77;14.52;;;;;;;-1.74;100.00;99762.72;4218750;28;20052;-71
2022/11/13 02:02:21;;;;;;;25.67;14.30;;;;;;;-1.78;100.00;99767.88;4218814;28;20066;-71
2022/11/13 02:04:22;;;;;;;27.27;14.38;;;;;;;-1.84;100.00;99766.22;4217537;28;20528;-71
2022/11/13 02:06:25;;;;;;;30.98;14.00;;;;;;;-1.87;100.00;99769.47;4217008;28;20041;-71
2022/11/13 02:08:25;;;;;;;23.30;14.23;;;;;;;-1.90;100.00;99761.00;4218877;28;20039;-71
2022/11/13 02:10:26;;;;;;;30.13;17.00;;;;;;;-1.94;100.00;99759.94;4218946;28;20032;-71
2022/11/13 02:12:33;;;;;;;22.98;14.48;;;;;;;-1.95;100.00;99771.88;4218833;28;20185;-71
2022/11/13 02:14:35;;;;;;;23.23;13.82;;;;;;;-1.97;100.00;99758.56;4219344;28;20063;-71
2022/11/13 02:16:36;;;;;;;26.20;14.43;;;;;;;-2.04;100.00;99747.97;4218250;28;20197;-72
2022/11/13 02:18:38;;;;;;;24.38;14.07;;;;;;;-2.02;100.00;99750.41;4218686;28;20051;-71
2022/11/13 02:20:50;;;;;;;22.20;13.98;;;;;;;-2.04;100.00;99752.56;4218079;28;20050;-71
2022/11/13 02:23:08;;;;;;;21.95;13.93;;;;;;;-2.08;100.00;99746.03;4217700;28;20116;-70
2022/11/13 02:25:10;;;;;;;22.02;12.52;;;;;;;-2.11;100.00;99743.84;4218718;28;20307;-71
2022/11/13 02:27:18;;;;;;;22.35;14.15;;;;;;;-2.16;100.00;99750.06;4218819;28;20044;-72
2022/11/13 02:29:19;;;;;;;20.90;13.05;;;;;;;-2.17;100.00;99750.31;4219480;28;20047;-71
2022/11/13 02:31:19;;;;;;;21.50;13.50;;;;;;;-2.17;100.00;99747.59;4218748;28;20043;-71
2022/11/13 02:33:26;;;;;;;26.55;14.38;;;;;;;-2.15;100.00;99761.72;4218468;28;20039;-71
2022/11/13 02:35:31;;;;;;;31.70;15.45;;;;;;;-2.19;100.00;99757.91;4218698;28;20078;-72
2022/11/13 02:37:32;;;;;;;28.45;14.13;;;;;;;-2.27;100.00;99749.19;4219828;28;20256;-72
2022/11/13 02:39:32;;;;;;;31.52;15.52;;;;;;;-2.41;100.00;99748.00;4218961;28;20075;-72
2022/11/13 02:41:32;;;;;;;46.67;16.35;;;;;;;-2.47;100.00;99743.66;4218180;28;20192;-71
2022/11/13 02:43:33;;;;;;;24.55;14.73;;;;;;;-2.46;100.00;99745.28;4218235;28;20592;-72
2022/11/13 02:45:33;;;;;;;26.10;15.38;;;;;;;-2.46;100.00;99742.59;4218695;28;20596;-72
2022/11/13 02:47:34;;;;;;;23.95;13.95;;;;;;;-2.43;100.00;99741.22;4217948;28;20143;-72
2022/11/13 02:49:34;;;;;;;21.25;13.50;;;;;;;-2.43;100.00;99738.53;4220612;28;20031;-72
2022/11/13 02:51:34;;;;;;;26.67;14.55;;;;;;;-2.43;100.00;99738.53;4222082;28;20146;-71
2022/11/13 02:53:35;;;;;;;27.95;15.43;;;;;;;-2.40;100.00;99746.13;4221249;28;20154;-72
2022/11/13 02:55:35;;;;;;;27.33;14.00;;;;;;;-2.37;100.00;99743.72;4221854;28;20040;-72
2022/11/13 02:57:36;;;;;;;32.30;14.93;;;;;;;-2.38;100.00;99747.50;4221688;28;20047;-72
2022/11/13 02:59:36;;;;;;;26.90;15.57;;;;;;;-2.38;100.00;99747.50;4222126;28;20277;-72
2022/11/13 03:01:36;;;;;;;26.90;14.70;;;;;;;-2.35;100.00;99738.03;4221986;28;20119;-72
2022/11/13 03:03:36;;;;;;;27.20;14.50;;;;;;;-2.37;100.00;99741.00;4222815;27;20484;-72
2022/11/13 03:05:37;;;;;;;27.10;14.65;;;;;;;-2.37;100.00;99738.31;4221907;28;20071;-72
2022/11/13 03:07:37;;;;;;;30.38;15.90;;;;;;;-2.38;100.00;99741.28;4221907;28;20044;-72
2022/11/13 03:09:38;;;;;;;26.38;14.95;;;;;;;-2.40;100.00;99728.00;4221654;28;20372;-72
2022/11/13 03:11:39;;;;;;;22.42;15.07;;;;;;;-2.40;100.00;99730.69;4221936;28;20055;-73
2022/11/13 03:13:40;;;;;;;24.38;14.05;;;;;;;-2.39;100.00;99736.94;4220949;28;20096;-73
2022/11/13 03:15:40;;;;;;;33.47;15.75;;;;;;;-2.45;100.00;99736.09;4221543;28;20104;-72
2022/11/13 03:17:40;;;;;;;28.00;14.10;;;;;;;-2.43;100.00;99727.69;4221586;28;20039;-72
2022/11/13 03:19:41;;;;;;;23.73;14.18;;;;;;;-2.45;100.00;99733.38;4222039;28;20505;-72
2022/11/13 03:21:41;;;;;;;25.40;15.43;;;;;;;-2.43;100.00;99730.41;4222039;28;20506;-72
2022/11/13 03:23:45;;;;;;;26.15;14.63;;;;;;;-2.45;100.00;99730.66;4221385;28;20048;-72
2022/11/13 03:25:46;;;;;;;27.83;14.98;;;;;;;-2.48;100.00;99733.06;4222165;28;20589;-72
2022/11/13 03:27:46;;;;;;;25.40;14.80;;;;;;;-2.42;100.00;99738.25;4222050;28;20122;-72
2022/11/13 03:29:47;;;;;;;22.52;14.45;;;;;;;-2.45;100.00;99727.13;4221954;28;20126;-72
2022/11/13 03:31:47;;;;;;;23.65;14.35;;;;;;;-2.46;100.00;99734.44;4222007;28;20054;-72
2022/11/13 03:33:47;;;;;;;30.85;16.45;;;;;;;-2.42;100.00;99729.31;4221798;28;20754;-72
2022/11/13 03:35:48;;;;;;;27.92;15.57;;;;;;;-2.41;100.00;99728.22;4221516;28;20106;-72
2022/11/13 03:37:49;;;;;;;45.65;17.63;;;;;;;-2.34;100.00;99740.47;4221922;27;20035;-72
2022/11/13 03:39:49;;;;;;;48.80;17.52;;;;;;;-2.39;100.00;99723.38;4221762;28;20329;-72
2022/11/13 03:41:49;;;;;;;40.28;16.30;;;;;;;-2.32;100.00;99732.91;4221808;28;20048;-72
2022/11/13 03:43:50;;;;;;;36.58;17.27;;;;;;;-2.33;100.00;99733.97;4221223;28;20071;-72
2022/11/13 03:45:50;;;;;;;25.65;15.93;;;;;;;-2.36;100.00;99739.13;4221628;28;20067;-72
2022/11/13 03:47:51;;;;;;;23.73;15.70;;;;;;;-2.42;100.00;99735.53;4221893;28;20395;-72
2022/11/13 03:49:51;;;;;;;37.53;18.17;;;;;;;-2.46;100.00;99731.75;4221463;28;20514;-72
2022/11/13 03:51:51;;;;;;;32.08;17.95;;;;;;;-2.43;100.00;99739.34;4221840;28;20135;-72
2022/11/13 03:53:52;;;;;;;30.40;16.70;;;;;;;-2.49;100.00;99743.09;4221039;28;20074;-72
2022/11/13 03:55:53;;;;;;;31.75;19.05;;;;;;;-2.50;100.00;99735.22;4221260;28;20429;-72
2022/11/13 03:57:53;;;;;;;26.15;17.13;;;;;;;-2.41;100.00;99731.75;4221669;28;20047;-72
2022/11/13 03:59:53;;;;;;;33.17;18.17;;;;;;;-2.30;100.00;99736.19;4221323;28;20201;-72
2022/11/13 04:01:54;;;;;;;30.88;18.95;;;;;;;-2.23;100.00;99730.53;4221262;28;20476;-72
2022/11/13 04:03:54;;;;;;;28.35;17.42;;;;;;;-2.17;100.00;99731.34;4221813;27;20048;-72
2022/11/13 04:05:54;;;;;;;27.25;16.00;;;;;;;-2.23;100.00;99724.25;4221578;28;20487;-72
2022/11/13 04:07:55;;;;;;;25.85;16.38;;;;;;;-2.26;100.00;99721.00;4221048;28;20067;-72
2022/11/13 04:09:55;;;;;;;28.92;16.60;;;;;;;-2.18;100.00;99722.41;4221304;28;20062;-72
2022/11/13 04:11:55;;;;;;;27.65;17.75;;;;;;;-2.11;100.00;99739.25;4221203;28;20071;-72
2022/11/13 04:13:56;;;;;;;28.48;16.75;;;;;;;-2.06;100.00;99733.03;4221254;28;20479;-72
2022/11/13 04:15:56;;;;;;;26.30;16.23;;;;;;;-2.00;100.00;99731.97;4221216;28;20617;-72
2022/11/13 04:17:56;;;;;;;25.98;15.60;;;;;;;-1.99;100.00;99726.28;4221303;28;20067;-72
2022/11/13 04:19:57;;;;;;;28.23;15.93;;;;;;;-1.91;100.00;99724.13;4221497;28;20090;-72
2022/11/13 04:21:57;;;;;;;21.20;14.27;;;;;;;-1.92;100.00;99725.22;4220556;28;20043;-72
2022/11/13 04:23:57;;;;;;;25.40;13.52;;;;;;;-1.91;100.00;99721.41;4220523;28;20658;-72
2022/11/13 04:25:58;;;;;;;26.40;13.70;;;;;;;-2.03;100.00;99708.91;4221497;28;20219;-72
2022/11/13 04:27:58;;;;;;;24.38;13.38;;;;;;;-2.07;100.00;99718.66;4220782;28;20032;-72
2022/11/13 04:29:58;;;;;;;19.98;13.45;;;;;;;-2.08;100.00;99719.72;4220690;28;20118;-72
2022/11/13 04:31:59;;;;;;;22.70;13.20;;;;;;;-2.10;100.00;99707.50;4221170;28;20370;-72
2022/11/13 04:33:59;;;;;;;19.10;12.00;;;;;;;-2.10;100.00;99710.22;4219570;28;20464;-72
2022/11/13 04:36:00;;;;;;;21.33;12.13;;;;;;;-2.16;100.00;99703.97;4220730;28;20062;-72
2022/11/13 04:38:01;;;;;;;22.08;13.00;;;;;;;-2.22;100.00;99712.34;4220741;27;20051;-72
2022/11/13 04:40:02;;;;;;;23.80;13.70;;;;;;;-2.28;100.00;99715.03;4221591;28;20320;-72
2022/11/13 04:44:21;;;;;;;22.60;13.27;;;;;;;-2.42;100.00;99713.88;4220850;28;20041;-72
2022/11/13 04:46:22;;;;;;;24.92;15.43;;;;;;;-2.44;100.00;99705.19;4220988;28;20035;-72
2022/11/13 04:48:22;;;;;;;25.38;16.02;;;;;;;-2.35;100.00;99703.59;4220627;28;20158;-71
2022/11/13 04:50:23;;;;;;;24.38;15.05;;;;;;;-2.38;100.00;99704.16;4221289;28;20485;-72
2022/11/13 04:52:23;;;;;;;31.13;15.30;;;;;;;-2.35;100.00;99692.75;4220130;28;20127;-72
2022/11/13 04:54:23;;;;;;;29.95;15.88;;;;;;;-2.44;100.00;99691.63;4219861;28;20036;-72
2022/11/13 04:56:23;;;;;;;25.33;15.65;;;;;;;-2.47;100.00;99696.78;4220809;28;20027;-72
2022/11/13 04:58:24;;;;;;;27.70;15.45;;;;;;;-2.41;100.00;99682.97;4220917;28;20044;-72
2022/11/13 05:00:24;;;;;;;30.88;17.33;;;;;;;-2.40;100.00;99687.34;4220804;28;20123;-72
2022/11/13 05:02:25;;;;;;;28.67;17.08;;;;;;;-2.33;100.00;99681.66;4219825;28;20048;-72
2022/11/13 05:04:25;;;;;;;26.95;16.48;;;;;;;-2.27;100.00;99686.03;4220250;27;20039;-72
2022/11/13 05:06:25;;;;;;;27.05;16.42;;;;;;;-2.33;100.00;99682.47;4220464;28;20425;-72
2022/11/13 05:08:26;;;;;;;30.15;16.08;;;;;;;-2.28;100.00;99681.69;4220451;28;20482;-72
2022/11/13 05:10:26;;;;;;;27.02;15.32;;;;;;;-2.35;100.00;99676.50;4220458;28;20028;-72
2022/11/13 05:12:26;;;;;;;27.38;15.52;;;;;;;-2.49;100.00;99674.53;4218499;28;20047;-72
2022/11/13 05:14:27;;;;;;;23.35;14.43;;;;;;;-2.60;100.00;99673.66;4219613;28;20039;-72
2022/11/13 05:16:27;;;;;;;22.17;13.80;;;;;;;-2.71;100.00;99672.78;4220720;28;20163;-72
2022/11/13 05:18:28;;;;;;;27.98;14.90;;;;;;;-2.82;100.00;99660.25;4219301;28;20787;-72
2022/11/13 05:20:28;;;;;;;24.05;14.20;;;;;;;-2.89;100.00;99670.53;4219856;28;20112;-72
2022/11/13 05:22:28;;;;;;;20.75;13.35;;;;;;;-2.94;100.00;99663.16;4220001;28;20104;-72
2022/11/13 05:24:29;;;;;;;25.65;13.95;;;;;;;-2.98;100.00;99670.19;4220267;28;20051;-72
2022/11/13 05:26:29;;;;;;;24.70;14.18;;;;;;;-3.06;100.00;99662.56;4220529;28;20050;-72
2022/11/13 05:28:30;;;;;;;22.73;14.30;;;;;;;-3.05;100.00;99672.31;4220166;28;20046;-72
2022/11/13 05:30:30;;;;;;;24.33;14.32;;;;;;;-3.06;100.00;99673.38;4220020;28;20315;-72
2022/11/13 05:32:31;;;;;;;22.85;14.27;;;;;;;-2.91;100.00;99659.09;4220132;28;20452;-72
2022/11/13 05:34:31;;;;;;;28.48;15.70;;;;;;;-2.87;100.00;99674.59;4219776;28;20118;-72
2022/11/13 05:36:32;;;;;;;22.58;14.90;;;;;;;-2.73;100.00;99657.84;4220039;28;20030;-72
2022/11/13 05:38:33;;;;;;;26.52;14.82;;;;;;;-2.66;100.00;99658.44;4221551;27;20043;-72
2022/11/13 05:40:33;;;;;;;27.85;14.07;;;;;;;-2.63;100.00;99663.34;4219950;28;20443;-72
2022/11/13 05:42:34;;;;;;;22.52;13.63;;;;;;;-2.55;100.00;99657.44;4219147;28;20036;-72
2022/11/13 05:44:34;;;;;;;21.10;13.35;;;;;;;-2.60;100.00;99660.94;4219756;28;20032;-71
2022/11/13 05:46:34;;;;;;;24.60;13.73;;;;;;;-2.55;100.00;99665.56;4220062;28;20039;-71
2022/11/13 05:48:35;;;;;;;24.27;13.95;;;;;;;-2.58;100.00;99660.66;4220057;28;20049;-72
2022/11/13 05:50:35;;;;;;;23.42;14.05;;;;;;;-2.56;100.00;99663.94;4219450;28;20035;-72
2022/11/13 05:52:36;;;;;;;23.00;13.05;;;;;;;-2.67;100.00;99652.22;4219590;28;20499;-71
2022/11/13 05:54:36;;;;;;;24.58;13.68;;;;;;;-2.70;100.00;99652.75;4219981;28;20487;-71
2022/11/13 05:56:36;;;;;;;23.65;13.65;;;;;;;-2.71;100.00;99643.00;4219825;28;20027;-71
2022/11/13 05:58:38;;;;;;;22.33;13.80;;;;;;;-2.73;100.00;99650.56;4220020;28;20048;-71
2022/11/13 06:00:38;;;;;;;23.98;13.00;;;;;;;-2.83;100.00;99645.06;4219403;28;20036;-71
2022/11/13 06:02:38;;;;;;;21.48;13.98;;;;;;;-2.86;100.00;99638.31;4219275;27;20523;-71
2022/11/13 06:04:38;;;;;;;20.27;13.50;;;;;;;-2.81;100.00;99637.53;4219379;28;20063;-71
2022/11/13 06:06:39;;;;;;;23.75;12.63;;;;;;;-2.83;100.00;99635.06;4218908;28;20075;-71
2022/11/13 06:08:40;;;;;;;25.00;13.50;;;;;;;-2.74;100.00;99637.28;4219048;28;20044;-71
2022/11/13 06:10:41;;;;;;;23.13;13.50;;;;;;;-2.79;100.00;99634.56;4219460;28;20096;-71
2022/11/13 06:12:41;;;;;;;24.30;14.23;;;;;;;-2.86;100.00;99634.78;4219147;28;20056;-72
2022/11/13 06:14:41;;;;;;;22.42;12.93;;;;;;;-2.97;100.00;99624.97;4219651;28;20464;-72
2022/11/13 06:16:42;;;;;;;22.10;13.18;;;;;;;-3.07;100.00;99630.28;4219809;28;20048;-71
2022/11/13 06:18:44;;;;;;;25.80;13.70;;;;;;;-3.11;100.00;99630.00;4219268;28;20323;-72
2022/11/13 06:20:44;;;;;;;28.60;15.18;;;;;;;-3.11;100.00;99621.88;4219723;28;20397;-72
2022/11/13 06:22:44;;;;;;;31.92;17.55;;;;;;;-3.04;100.00;99627.91;4220137;28;20047;-71
2022/11/13 06:24:45;;;;;;;76.32;35.20;;;;;;;-3.03;100.00;99624.13;4225090;27;20128;-71
2022/11/13 06:26:45;;;;;;;55.28;25.83;;;;;;;-3.08;100.00;99628.66;4225143;28;20087;-71
2022/11/13 06:28:46;;;;;;;29.55;17.08;;;;;;;-3.10;100.00;99604.56;4225326;28;20424;-71
2022/11/13 06:30:46;;;;;;;32.10;16.98;;;;;;;-3.19;100.00;99623.19;4224911;27;20063;-71
2022/11/13 06:32:53;;;;;;;33.13;19.23;;;;;;;-3.29;100.00;99620.41;4224412;28;20035;-71
2022/11/13 06:34:53;;;;;;;34.75;19.02;;;;;;;-3.28;100.00;99610.41;4225512;28;20712;-71
2022/11/13 06:36:53;;;;;;;30.48;17.42;;;;;;;-3.20;100.00;99615.34;4224614;27;20337;-71
2022/11/13 06:38:54;;;;;;;27.42;16.63;;;;;;;-3.24;100.00;99612.31;4225188;27;20453;-71
2022/11/13 06:40:55;;;;;;;37.72;23.00;;;;;;;-3.26;100.00;99614.47;4225248;28;20127;-71
2022/11/13 06:42:56;;;;;;;33.20;20.67;;;;;;;-3.29;100.00;99620.41;4224449;27;20356;-71
2022/11/13 06:44:56;;;;;;;29.33;17.63;;;;;;;-3.19;100.00;99612.34;4224283;28;20046;-71
2022/11/13 06:46:56;;;;;;;28.83;15.60;;;;;;;-3.19;100.00;99606.94;4223988;27;20050;-71
2022/11/13 06:48:57;;;;;;;23.40;14.82;;;;;;;-3.08;100.00;99607.81;4224433;28;20035;-71
2022/11/13 06:51:03;;;;;;;24.17;13.88;;;;;;;-3.11;100.00;99611.88;4221809;28;20044;-71
2022/11/13 06:53:03;;;;;;;20.00;12.55;;;;;;;-3.18;100.00;99615.88;4163747;27;20154;-71
2022/11/13 06:55:04;;;;;;;19.20;12.45;;;;;;;-3.27;100.00;99606.63;4224214;27;20072;-71
2022/11/13 06:57:04;;;;;;;16.95;11.40;;;;;;;-3.35;100.00;99597.09;4225115;27;20434;-71
2022/11/13 06:59:04;;;;;;;22.75;12.88;;;;;;;-3.29;100.00;99604.19;4224382;28;20483;-72
2022/11/13 07:01:13;;;;;;;20.88;13.48;;;;;;;-3.11;100.00;99597.53;4223121;28;20067;-71
2022/11/13 07:03:16;;;;;;;19.27;12.98;;;;;;;-3.03;100.00;99605.16;4222893;27;20354;-71
2022/11/13 07:05:16;;;;;;;21.40;13.38;;;;;;;-3.03;100.00;99602.44;4224679;28;20380;-71
2022/11/13 07:07:17;;;;;;;19.58;12.32;;;;;;;-2.94;100.00;99605.47;4225050;27;20367;-72
2022/11/13 07:09:17;;;;;;;21.50;12.70;;;;;;;-2.94;100.00;99598.16;4224588;28;20034;-71
2022/11/13 07:11:20;;;;;;;18.90;13.13;;;;;;;-2.94;100.00;99605.47;4224998;28;20036;-71
2022/11/13 07:13:21;;;;;;;22.83;12.35;;;;;;;-2.95;100.00;99598.44;4223165;28;20100;-71
2022/11/13 07:15:21;;;;;;;19.40;12.40;;;;;;;-2.93;100.00;99605.22;4224740;27;20114;-71
2022/11/13 07:17:21;;;;;;;18.92;11.85;;;;;;;-2.93;100.00;99597.09;4223185;28;20075;-71
2022/11/13 07:19:22;;;;;;;17.23;11.02;;;;;;;-2.95;100.00;99601.97;4224023;28;20079;-71
2022/11/13 07:21:22;;;;;;;18.05;11.70;;;;;;;-3.02;100.00;99595.97;4224698;28;20499;-71
2022/11/13 07:23:23;;;;;;;20.25;12.38;;;;;;;-3.06;100.00;99594.00;4223595;28;20074;-71
2022/11/13 07:25:24;;;;;;;19.95;11.65;;;;;;;-3.13;100.00;99586.16;4224652;28;20035;-71
2022/11/13 07:27:24;;;;;;;29.05;17.80;;;;;;;-3.19;100.00;99598.81;4225110;28;20040;-71
2022/11/13 07:29:25;;;;;;;38.65;24.00;;;;;;;-3.21;100.00;99601.00;4224251;28;20092;-71
2022/11/13 07:31:25;;;;;;;48.75;28.77;;;;;;;-3.24;100.00;99593.38;4223360;28;20473;-71
2022/11/13 07:33:25;;;;;;;44.33;25.13;;;;;;;-3.25;100.00;99583.63;4223978;28;20487;-71
2022/11/13 07:35:26;;;;;;;38.35;23.42;;;;;;;-3.23;100.00;99588.78;4219344;28;20122;-71
2022/11/13 07:37:26;;;;;;;37.65;23.27;;;;;;;-3.19;100.00;99585.28;4221149;27;20818;-72
2022/11/13 07:39:26;;;;;;;37.17;23.70;;;;;;;-3.19;100.00;99592.59;4221692;28;20114;-71
2022/11/13 07:41:26;;;;;;;41.88;25.67;;;;;;;-3.18;100.00;99595.03;4220415;28;20571;-71
2022/11/13 07:43:27;;;;;;;37.67;22.67;;;;;;;-3.13;100.00;99597.78;4219592;28;20042;-72
2022/11/13 07:45:28;;;;;;;32.30;19.40;;;;;;;-3.11;100.00;99589.41;4221315;28;20283;-71
2022/11/13 07:47:28;;;;;;;43.75;21.45;;;;;;;-3.03;100.00;99598.94;4221929;28;20100;-71
2022/11/13 07:49:29;;;;;;;34.03;18.80;;;;;;;-3.00;100.00;99596.50;4221431;28;20043;-71
2022/11/13 07:51:29;;;;;;;37.38;19.88;;;;;;;-2.99;100.00;99597.31;4221598;28;20039;-72
2022/11/13 07:53:30;;;;;;;36.63;19.50;;;;;;;-2.95;100.00;99595.72;4221264;28;20191;-71
2022/11/13 07:55:32;;;;;;;30.52;17.63;;;;;;;-2.91;100.00;99597.63;4221272;28;20123;-71
2022/11/13 07:57:32;;;;;;;25.58;15.85;;;;;;;-2.86;100.00;99591.44;4220441;28;20661;-71
2022/11/13 07:59:33;;;;;;;27.08;16.67;;;;;;;-2.82;100.00;99593.34;4221412;28;20146;-72
2022/11/13 08:01:33;;;;;;;31.48;18.52;;;;;;;-2.76;100.00;99588.78;4219300;28;20305;-72
2022/11/13 08:03:34;;;;;;;27.13;17.45;;;;;;;-2.70;100.00;99590.44;4221150;28;20063;-72
2022/11/13 08:05:35;;;;;;;26.77;19.08;;;;;;;-2.61;100.00;99590.75;4220540;28;20114;-72
2022/11/13 08:07:35;;;;;;;30.40;21.80;;;;;;;-2.59;100.00;99594.81;4221698;28;20040;-71
2022/11/13 08:09:35;;;;;;;29.60;18.67;;;;;;;-2.54;100.00;99585.91;4221056;28;20036;-71
2022/11/13 08:11:36;;;;;;;25.92;17.92;;;;;;;-2.47;100.00;99586.47;4221616;28;20075;-71
2022/11/13 08:13:37;;;;;;;23.80;14.63;;;;;;;-2.43;100.00;99582.13;4220639;28;20511;-71
2022/11/13 08:15:37;;;;;;;24.60;16.00;;;;;;;-2.40;100.00;99575.38;4221114;28;20471;-71
2022/11/13 08:17:38;;;;;;;28.80;16.85;;;;;;;-2.35;100.00;99580.81;4219124;28;20207;-71
2022/11/13 08:19:38;;;;;;;30.48;16.15;;;;;;;-2.29;100.00;99586.00;4220756;28;20131;-72
2022/11/13 08:21:38;;;;;;;24.98;16.05;;;;;;;-2.24;100.00;99576.22;4221555;28;20040;-71
2022/11/13 08:23:40;;;;;;;24.55;15.23;;;;;;;-2.12;100.00;99587.66;4220212;28;20065;-71
2022/11/13 08:25:41;;;;;;;21.38;14.45;;;;;;;-2.06;100.00;99589.31;4221009;28;20131;-72
2022/11/13 08:27:41;;;;;;;26.40;15.18;;;;;;;-2.02;100.00;99584.97;4219813;28;20067;-72
2022/11/13 08:29:41;;;;;;;24.77;16.73;;;;;;;-1.99;100.00;99596.09;4220832;28;20141;-72
2022/11/13 08:31:42;;;;;;;24.70;17.15;;;;;;;-1.95;100.00;99596.38;4220841;28;20142;-72
2022/11/13 08:33:42;;;;;;;24.20;16.40;;;;;;;-1.90;100.00;99585.53;4218739;28;20090;-72
2022/11/13 08:35:51;;;;;;;24.83;16.38;;;;;;;-1.82;100.00;99582.28;4221316;28;20082;-72
2022/11/13 08:37:51;;;;;;;24.30;15.73;;;;;;;-1.72;100.00;99584.19;4221362;28;20039;-72
2022/11/13 08:39:52;;;;;;;24.13;15.20;;;;;;;-1.57;100.00;99583.38;4220928;28;20042;-72
2022/11/13 08:41:52;;;;;;;25.80;13.50;;;;;;;-1.53;100.00;99581.75;4220648;28;20502;-72
2022/11/13 08:43:52;;;;;;;23.98;15.35;;;;;;;-1.43;100.00;99579.84;4220044;28;20097;-72
2022/11/13 08:45:53;;;;;;;20.75;13.25;;;;;;;-1.35;100.00;99572.25;4159323;28;20088;-72
2022/11/13 08:47:53;;;;;;;18.38;11.45;;;;;;;-1.25;100.00;99577.66;4220448;28;20492;-72
2022/11/13 08:49:54;;;;;;;17.92;11.52;;;;;;;-1.15;100.00;99573.03;4219636;28;20636;-72
2022/11/13 08:51:55;;;;;;;16.73;11.52;;;;;;;-1.06;100.00;99573.28;4218592;28;20039;-71
2022/11/13 08:53:55;;;;;;;18.55;12.88;;;;;;;-0.99;100.00;99573.81;4217671;28;20040;-71
2022/11/13 08:55:59;;;;;;;21.67;12.02;;;;;;;-0.94;100.00;99573.78;4219226;28;20046;-71
2022/11/13 08:58:00;;;;;;;20.52;13.57;;;;;;;-0.86;100.00;99572.41;4219591;28;20460;-71
2022/11/13 09:00:04;;;;;;;20.25;14.15;;;;;;;-0.72;100.00;99567.22;4220301;28;20426;-71
2022/11/13 09:02:05;;;;;;;20.73;13.52;;;;;;;-0.61;100.00;99558.72;4217648;28;20063;-71
2022/11/13 09:04:05;;;;;;;18.45;12.98;;;;;;;-0.52;100.00;99563.59;4214958;27;20765;-72
2022/11/13 09:06:06;;;;;;;18.48;12.93;;;;;;;-0.43;100.00;99562.72;4211725;28;20353;-72
2022/11/13 09:08:06;;;;;;;20.85;13.15;;;;;;;-0.29;100.00;99554.78;4219457;28;20492;-72
2022/11/13 09:10:07;;;;;;;17.45;12.55;;;;;;;-0.20;100.00;99546.84;4219234;28;20027;-72
2022/11/13 09:12:07;;;;;;;19.40;11.82;;;;;;;-0.14;100.00;99560.13;4219139;28;20081;-72